Jachal, Argentina
Current Conditions -  °F | °C
As of 6:00 AM on Saturday 29 Nov 2014 (Local Time) from SCSE Reporting Station
Overcast Overcast  
Wind Chill: 13°   Ceiling: 1300
Heat Index: 13°   Visibility: 6mi
Dew Point: 10°   Wind: 1mph
Humidity: 82%   Direction: 40°NE
Pressure: 29.94"   Gusts: NA
Location:  30.25°S, 68.75°W
Report Text: SCSE 290900Z 04001KT 9999 OVC013 13/10 Q1014
Loading
Personal Weather Stations






























Interactive Weather Map New forecast layout! Learn more

10-Day Weather Forecast

Advertisements
Track Severe Weather on mobile